createdAt,value
2022-08-05T00:03:48.350Z,95501.00
2022-08-05T00:08:00.522Z,95509.00
2022-08-05T00:12:04.566Z,95499.00
2022-08-05T00:16:11.095Z,95493.00
2022-08-05T00:20:15.456Z,95493.00
2022-08-05T00:24:24.632Z,95484.00
2022-08-05T00:28:29.694Z,95480.00
2022-08-05T00:32:34.071Z,95484.00
2022-08-05T00:37:11.093Z,95487.00
2022-08-05T00:41:01.513Z,95493.00
2022-08-05T00:45:08.458Z,95493.00
2022-08-05T00:49:14.008Z,95479.00
2022-08-05T00:53:59.858Z,95482.00
2022-08-05T00:57:58.032Z,95472.00
2022-08-05T01:02:01.738Z,95473.00
2022-08-05T01:06:06.558Z,95471.00
2022-08-05T01:10:19.601Z,95466.00
2022-08-05T01:14:36.062Z,95464.00
2022-08-05T01:18:43.418Z,95478.00
2022-08-05T01:23:15.244Z,95477.00
2022-08-05T01:27:54.864Z,95468.00
2022-08-05T01:32:03.103Z,95471.00
2022-08-05T01:36:12.964Z,95470.00
2022-08-05T01:40:20.709Z,95469.00
2022-08-05T01:44:34.400Z,95471.00
2022-08-05T01:48:40.133Z,95475.00
2022-08-05T01:52:45.217Z,95473.00
2022-08-05T01:58:12.153Z,95475.00
2022-08-05T02:01:25.459Z,95474.00
2022-08-05T02:05:35.976Z,95476.00
2022-08-05T02:09:39.619Z,95476.00
2022-08-05T02:13:53.354Z,95471.00
2022-08-05T02:18:31.307Z,95466.00
2022-08-05T02:22:30.829Z,95472.00
2022-08-05T02:26:39.795Z,95466.00
2022-08-05T02:30:59.671Z,95465.00
2022-08-05T02:35:09.718Z,95462.00
2022-08-05T02:39:21.434Z,95464.00
2022-08-05T02:43:25.731Z,95471.00
2022-08-05T02:48:06.382Z,95466.00
2022-08-05T02:52:04.269Z,95461.00
2022-08-05T02:56:08.968Z,95461.00
2022-08-05T03:00:13.935Z,95460.00
2022-08-05T03:04:16.954Z,95462.00
2022-08-05T03:08:26.996Z,95469.00
2022-08-05T03:12:33.609Z,95458.00
2022-08-05T03:16:36.605Z,95470.00
2022-08-05T03:20:44.602Z,95460.00
2022-08-05T03:24:53.673Z,95454.00
2022-08-05T03:28:56.546Z,95462.00
2022-08-05T03:33:00.587Z,95451.00
2022-08-05T03:37:04.860Z,95445.00
2022-08-05T03:41:10.954Z,95442.00
2022-08-05T03:45:21.800Z,95440.00
2022-08-05T03:49:31.209Z,95444.00
2022-08-05T03:55:00.446Z,95448.00
2022-08-05T03:58:22.227Z,95443.00
2022-08-05T04:02:38.358Z,95447.00
2022-08-05T04:06:47.653Z,95463.00
2022-08-05T04:10:54.282Z,95485.00
2022-08-05T04:14:59.376Z,95494.00
2022-08-05T04:19:02.760Z,95503.00
2022-08-05T04:23:16.047Z,95501.00
2022-08-05T04:27:19.240Z,95495.00
2022-08-05T04:31:23.670Z,95502.00
2022-08-05T04:36:11.347Z,95497.00
2022-08-05T04:39:53.278Z,95502.00
2022-08-05T04:43:58.462Z,95504.00
2022-08-05T04:48:07.468Z,95502.00
2022-08-05T04:52:19.220Z,95499.00
2022-08-05T04:56:35.005Z,95497.00
2022-08-05T05:00:40.919Z,95507.00
2022-08-05T05:04:47.686Z,95508.00
2022-08-05T05:08:52.610Z,95510.00
2022-08-05T05:12:55.615Z,95513.00
2022-08-05T05:16:58.413Z,95522.00
2022-08-05T05:21:03.770Z,95517.00
2022-08-05T05:25:14.816Z,95515.00
2022-08-05T05:29:19.942Z,95511.00
2022-08-05T05:33:25.213Z,95511.00
2022-08-05T05:37:58.868Z,95516.00
2022-08-05T05:41:54.810Z,95514.00
2022-08-05T05:45:57.869Z,95518.00
2022-08-05T05:50:01.505Z,95521.00
2022-08-05T05:54:08.247Z,95531.00
2022-08-05T05:58:14.428Z,95535.00
2022-08-05T06:02:31.007Z,95526.00
2022-08-05T06:06:41.785Z,95512.00
2022-08-05T06:10:49.242Z,95520.00
2022-08-05T06:14:55.706Z,95501.00
2022-08-05T06:18:59.924Z,95498.00
2022-08-05T06:23:04.248Z,95507.00
2022-08-05T06:27:17.368Z,95499.00
2022-08-05T06:31:32.101Z,95497.00
2022-08-05T06:36:03.789Z,95510.00
2022-08-05T06:39:57.824Z,95521.00
2022-08-05T06:44:01.972Z,95546.00
2022-08-05T06:48:37.285Z,95553.00
2022-08-05T06:52:36.618Z,95561.00
2022-08-05T06:56:41.277Z,95570.00
2022-08-05T07:01:01.338Z,95573.00
2022-08-05T07:05:04.179Z,95578.00
2022-08-05T07:09:17.182Z,95592.00
2022-08-05T07:13:57.611Z,95603.00
2022-08-05T07:18:07.010Z,95608.00
2022-08-05T07:22:11.076Z,95622.00
2022-08-05T07:26:22.688Z,95634.00
2022-08-05T07:30:31.737Z,95631.00
2022-08-05T07:34:40.512Z,95630.00
2022-08-05T07:38:45.015Z,95641.00
2022-08-05T07:42:47.775Z,95656.00
2022-08-05T07:46:50.998Z,95675.00
2022-08-05T07:50:55.604Z,95666.00
2022-08-05T07:55:02.447Z,95679.00
2022-08-05T07:59:22.028Z,95680.00
2022-08-05T08:03:44.462Z,95693.00
2022-08-05T08:08:00.038Z,95673.00
2022-08-05T08:12:10.624Z,95685.00
2022-08-05T08:16:35.377Z,95703.00
2022-08-05T08:21:00.235Z,95708.00
2022-08-05T08:25:16.275Z,95719.00
2022-08-05T08:29:29.420Z,95706.00
2022-08-05T08:33:43.299Z,95720.00
2022-08-05T08:37:51.755Z,95717.00
2022-08-05T08:42:02.276Z,95725.00
2022-08-05T08:46:09.947Z,95727.00
2022-08-05T08:50:30.348Z,95724.00
2022-08-05T08:54:36.693Z,95719.00
2022-08-05T08:58:44.487Z,95722.00
2022-08-05T09:02:53.148Z,95733.00
2022-08-05T09:06:56.361Z,95736.00
2022-08-05T09:10:59.208Z,95737.00
2022-08-05T09:15:05.606Z,95735.00
2022-08-05T09:19:09.990Z,95747.00
2022-08-05T09:23:21.656Z,95763.00
2022-08-05T09:28:03.758Z,95756.00
2022-08-05T09:32:46.199Z,95752.00
2022-08-05T09:36:54.182Z,95755.00
2022-08-05T09:41:04.664Z,95762.00
2022-08-05T09:45:17.814Z,95755.00
2022-08-05T09:49:40.412Z,95754.00
2022-08-05T09:53:58.988Z,95758.00
2022-08-05T09:58:11.450Z,95778.00
2022-08-05T10:02:14.285Z,95768.00
2022-08-05T10:06:24.646Z,95771.00
2022-08-05T10:10:32.457Z,95762.00
2022-08-05T10:14:35.423Z,95780.00
2022-08-05T10:18:39.399Z,95779.00
2022-08-05T10:22:48.883Z,95787.00
2022-08-05T10:26:56.179Z,95775.00
2022-08-05T10:32:49.269Z,95775.00
2022-08-05T10:35:33.638Z,95775.00
2022-08-05T10:39:59.301Z,95780.00
2022-08-05T10:44:07.901Z,95789.00
2022-08-05T10:48:35.100Z,95770.00
2022-08-05T10:52:49.804Z,95763.00
2022-08-05T10:56:56.567Z,95767.00
2022-08-05T11:01:03.089Z,95770.00
2022-08-05T11:05:10.220Z,95777.00
2022-08-05T11:09:32.298Z,95761.00
2022-08-05T11:13:54.794Z,95772.00
2022-08-05T11:18:09.751Z,95780.00
2022-08-05T11:22:42.251Z,95776.00
2022-08-05T11:26:49.768Z,95770.00
2022-08-05T11:31:54.477Z,95777.00
2022-08-05T11:36:04.491Z,95772.00
2022-08-05T11:40:11.938Z,95778.00
2022-08-05T11:44:53.369Z,95775.00
2022-08-05T11:48:46.258Z,95780.00
2022-08-05T11:52:52.094Z,95765.00
2022-08-05T11:56:58.538Z,95768.00
2022-08-05T12:01:04.991Z,95765.00
2022-08-05T12:05:36.408Z,95775.00
2022-08-05T12:09:53.403Z,95771.00
2022-08-05T12:13:58.746Z,95767.00
2022-08-05T12:18:11.030Z,95748.00
2022-08-05T12:22:20.136Z,95756.00
2022-08-05T12:26:23.850Z,95746.00
2022-08-05T12:30:32.071Z,95736.00
2022-08-05T12:34:36.972Z,95737.00
2022-08-05T12:38:41.793Z,95704.00
2022-08-05T12:42:44.757Z,95727.00
2022-08-05T12:46:54.080Z,95709.00
2022-08-05T12:52:10.255Z,95716.00
2022-08-05T12:55:38.014Z,95709.00
2022-08-05T13:01:58.539Z,95677.00
2022-08-05T13:04:09.724Z,95678.00
2022-08-05T13:08:13.151Z,95668.00
2022-08-05T13:12:23.303Z,95671.00
2022-08-05T13:16:31.507Z,95677.00
2022-08-05T13:20:35.380Z,95675.00
2022-08-05T13:24:57.251Z,95688.00
2022-08-05T13:29:01.981Z,95703.00
2022-08-05T13:33:05.107Z,95685.00
2022-08-05T13:37:07.942Z,95687.00
2022-08-05T13:41:11.953Z,95678.00
2022-08-05T13:45:21.387Z,95666.00
2022-08-05T13:49:24.313Z,95695.00
2022-08-05T13:53:27.080Z,95682.00
2022-08-05T13:57:50.719Z,95681.00
2022-08-05T14:01:58.942Z,95676.00
2022-08-05T14:06:25.304Z,95669.00
2022-08-05T14:10:28.991Z,95676.00
2022-08-05T14:14:33.962Z,95662.00
2022-08-05T14:18:38.169Z,95662.00
2022-08-05T14:22:41.128Z,95660.00
2022-08-05T14:27:15.611Z,95655.00
2022-08-05T14:31:17.556Z,95650.00
2022-08-05T14:35:50.464Z,95647.00
2022-08-05T14:39:56.950Z,95638.00
2022-08-05T14:44:19.887Z,95616.00
2022-08-05T14:48:33.479Z,95614.00
2022-08-05T14:52:52.600Z,95612.00
2022-08-05T14:56:56.773Z,95611.00
2022-08-05T15:01:01.407Z,95611.00
2022-08-05T15:05:08.573Z,95614.00
2022-08-05T15:09:52.588Z,95613.00
2022-08-05T15:13:45.967Z,95618.00
2022-08-05T15:17:53.246Z,95619.00
2022-08-05T15:21:57.983Z,95611.00
2022-08-05T15:26:04.355Z,95625.00
2022-08-05T15:30:08.071Z,95630.00
2022-08-05T15:34:31.706Z,95632.00
2022-08-05T15:38:41.743Z,95643.00
2022-08-05T15:42:57.633Z,95631.00
2022-08-05T15:47:04.644Z,95634.00
2022-08-05T15:51:07.566Z,95637.00
2022-08-05T15:55:15.507Z,95642.00
2022-08-05T15:59:22.219Z,95638.00
2022-08-05T16:03:26.858Z,95641.00
2022-08-05T16:07:29.842Z,95639.00
2022-08-05T16:11:39.925Z,95640.00
2022-08-05T16:15:44.630Z,95624.00
2022-08-05T16:20:05.577Z,95627.00
2022-08-05T16:24:40.047Z,95631.00
2022-08-05T16:28:36.905Z,95639.00
2022-08-05T16:32:45.547Z,95640.00
2022-08-05T16:36:49.854Z,95639.00
2022-08-05T16:41:00.043Z,95648.00
2022-08-05T16:45:05.897Z,95650.00
2022-08-05T16:49:29.193Z,95651.00
2022-08-05T16:54:02.172Z,95650.00
2022-08-05T16:58:00.403Z,95651.00
2022-08-05T17:02:04.180Z,95652.00
2022-08-05T17:06:08.821Z,95659.00
2022-08-05T17:10:13.553Z,95664.00
2022-08-05T17:14:34.108Z,95658.00
2022-08-05T17:18:39.151Z,95654.00
2022-08-05T17:22:43.279Z,95663.00
2022-08-05T17:26:47.756Z,95657.00
2022-08-05T17:30:52.020Z,95654.00
2022-08-05T17:34:55.190Z,95660.00
2022-08-05T17:39:03.129Z,95654.00
2022-08-05T17:43:07.934Z,95649.00
2022-08-05T17:47:14.903Z,95650.00
2022-08-05T17:51:21.792Z,95649.00
2022-08-05T17:55:34.380Z,95655.00
2022-08-05T17:59:41.383Z,95656.00
2022-08-05T18:03:59.271Z,95661.00
2022-08-05T18:08:07.594Z,95672.00
2022-08-05T18:12:14.000Z,95664.00
2022-08-05T18:16:25.058Z,95657.00
2022-08-05T18:20:29.445Z,95669.00
2022-08-05T18:24:34.560Z,95678.00
2022-08-05T18:28:41.270Z,95686.00
2022-08-05T18:32:53.521Z,95692.00
2022-08-05T18:37:02.842Z,95698.00
2022-08-05T18:41:56.288Z,95700.00
2022-08-05T18:45:41.809Z,95702.00
2022-08-05T18:50:02.891Z,95710.00
2022-08-05T18:54:06.583Z,95722.00
2022-08-05T18:58:16.515Z,95752.00
2022-08-05T19:02:27.217Z,95778.00
2022-08-05T19:06:34.138Z,95793.00
2022-08-05T19:10:40.344Z,95816.00
2022-08-05T19:15:00.328Z,95814.00
2022-08-05T19:19:06.655Z,95810.00
2022-08-05T19:24:03.588Z,95807.00
2022-08-05T19:27:34.996Z,95815.00
2022-08-05T19:31:44.964Z,95824.00
2022-08-05T19:35:56.495Z,95817.00
2022-08-05T19:40:00.644Z,95830.00
2022-08-05T19:44:13.702Z,95826.00
2022-08-05T19:48:16.899Z,95816.00
2022-08-05T19:52:31.640Z,95809.00
2022-08-05T19:56:36.859Z,95814.00
2022-08-05T20:00:39.668Z,95805.00
2022-08-05T20:04:43.080Z,95802.00
2022-08-05T20:08:51.555Z,95804.00
2022-08-05T20:12:55.926Z,95803.00
2022-08-05T20:16:59.246Z,95811.00
2022-08-05T20:21:06.668Z,95813.00
2022-08-05T20:25:11.356Z,95822.00
2022-08-05T20:29:27.436Z,95834.00
2022-08-05T20:33:31.065Z,95842.00
2022-08-05T20:38:05.892Z,95881.00
2022-08-05T20:41:57.947Z,95947.00
2022-08-05T20:46:03.183Z,95950.00
2022-08-05T20:50:07.343Z,95948.00
2022-08-05T20:54:13.988Z,95947.00
2022-08-05T20:58:18.488Z,95957.00
2022-08-05T21:02:26.831Z,95974.00
2022-08-05T21:06:30.258Z,95965.00
2022-08-05T21:10:33.667Z,95984.00
2022-08-05T21:14:37.837Z,95981.00
2022-08-05T21:18:45.147Z,95983.00
2022-08-05T21:22:48.067Z,95999.00
2022-08-05T21:26:58.455Z,96042.00
2022-08-05T21:31:03.294Z,96050.00
2022-08-05T21:35:16.607Z,96056.00
2022-08-05T21:39:26.681Z,96062.00
2022-08-05T21:43:41.447Z,96059.00
2022-08-05T21:47:57.164Z,96052.00
2022-08-05T21:52:16.061Z,96066.00
2022-08-05T21:56:23.563Z,96102.00
2022-08-05T22:00:28.900Z,96107.00
2022-08-05T22:04:33.003Z,96094.00
2022-08-05T22:08:35.754Z,96090.00
2022-08-05T22:12:40.315Z,96096.00
2022-08-05T22:16:51.960Z,96103.00
2022-08-05T22:20:58.715Z,96093.00
2022-08-05T22:25:27.309Z,96078.00
2022-08-05T22:29:41.583Z,96078.00
2022-08-05T22:33:55.797Z,96067.00
2022-08-05T22:38:02.404Z,96055.00
2022-08-05T22:42:12.531Z,96081.00
2022-08-05T22:46:23.581Z,96081.00
2022-08-05T22:50:28.739Z,96094.00
2022-08-05T22:54:33.446Z,96093.00
2022-08-05T22:58:36.218Z,96102.00
2022-08-05T23:02:39.965Z,96102.00
2022-08-05T23:06:50.056Z,96113.00
2022-08-05T23:10:56.001Z,96115.00
2022-08-05T23:14:58.935Z,96112.00
2022-08-05T23:19:02.527Z,96095.00
2022-08-05T23:23:05.819Z,96110.00
2022-08-05T23:27:12.402Z,96105.00
2022-08-05T23:31:17.919Z,96117.00
2022-08-05T23:35:20.879Z,96113.00
2022-08-05T23:39:44.477Z,96105.00
2022-08-05T23:44:05.942Z,96108.00
2022-08-05T23:48:09.509Z,96113.00
2022-08-05T23:52:29.173Z,96124.00
2022-08-05T23:56:33.679Z,96128.00
